Time;durP1;ratioP1;P1;durP2;ratioP2;P2;SDS_P1;SDS_P2;PMS_P1;PMS_P2;Temp;Humidity;BMP_temperature;BMP_pressure;BME280_temperature;BME280_humidity;BME280_pressure;Samples;Min_cycle;Max_cycle;Signal;HPM_P1;HPM_P2
2021/09/07 00:01:11;;;;;;;10.15;4.30;;;;;;;7.49;69.37;100659.53;5055946;28;20434;-76
2021/09/07 00:03:40;;;;;;;7.18;4.03;;;;;;;7.53;69.35;100663.94;5039056;28;20041;-77
2021/09/07 00:06:05;;;;;;;14.32;4.10;;;;;;;7.50;69.53;100648.34;5056409;28;20043;-77
2021/09/07 00:08:31;;;;;;;11.57;4.13;;;;;;;7.61;69.70;100664.06;5058628;28;20041;-76
2021/09/07 00:10:57;;;;;;;7.50;3.30;;;;;;;7.66;69.60;100657.25;5073427;28;20048;-76
2021/09/07 00:13:23;;;;;;;6.75;3.67;;;;;;;7.60;69.71;100641.59;5039474;28;20043;-77
2021/09/07 00:15:48;;;;;;;11.32;3.30;;;;;;;7.70;69.70;100647.78;5073739;28;20047;-79
2021/09/07 00:18:16;;;;;;;6.88;3.55;;;;;;;7.84;69.74;100661.84;5052489;28;20530;-76
2021/09/07 00:20:41;;;;;;;7.80;3.15;;;;;;;7.86;69.71;100663.56;5053375;28;20049;-76
2021/09/07 00:23:07;;;;;;;5.88;3.47;;;;;;;7.75;69.61;100642.69;5072015;28;20182;-76
2021/09/07 00:25:33;;;;;;;8.15;4.20;;;;;;;7.78;69.38;100655.69;5054521;28;20116;-77
2021/09/07 00:27:58;;;;;;;6.45;3.40;;;;;;;7.69;69.36;100652.13;5071885;28;20048;-77
2021/09/07 00:30:24;;;;;;;6.05;3.20;;;;;;;7.76;69.54;100673.81;5072278;28;20040;-78
2021/09/07 00:32:50;;;;;;;8.55;3.33;;;;;;;7.65;69.95;100650.31;5072274;28;20048;-77
2021/09/07 00:35:15;;;;;;;7.10;3.40;;;;;;;7.69;69.46;100648.63;5054327;28;20072;-77
2021/09/07 00:37:42;;;;;;;7.60;3.08;;;;;;;7.74;69.64;100659.97;5072100;28;20090;-77
2021/09/07 00:40:10;;;;;;;8.88;3.38;;;;;;;7.73;69.87;100660.81;5055215;28;20067;-77
2021/09/07 00:42:37;;;;;;;7.13;3.08;;;;;;;7.70;69.76;100671.09;5072524;28;20052;-78
2021/09/07 00:45:06;;;;;;;6.30;3.08;;;;;;;7.61;70.02;100647.66;5072761;28;20127;-76
2021/09/07 00:47:32;;;;;;;5.68;2.97;;;;;;;7.67;69.92;100656.41;5054240;28;20542;-78
2021/09/07 00:49:58;;;;;;;4.45;2.90;;;;;;;7.58;70.17;100637.25;5072012;28;20044;-78
2021/09/07 00:52:25;;;;;;;5.40;2.80;;;;;;;7.72;70.22;100666.84;5021859;28;20090;-76
2021/09/07 00:54:53;;;;;;;5.70;2.70;;;;;;;7.59;70.14;100644.16;5054369;28;20135;-75
2021/09/07 00:57:23;;;;;;;4.80;2.70;;;;;;;7.54;70.31;100637.19;5036464;28;20135;-77
2021/09/07 00:59:50;;;;;;;6.60;2.72;;;;;;;7.50;70.19;100624.16;5038080;28;20055;-79
2021/09/07 01:02:16;;;;;;;7.85;2.60;;;;;;;7.66;70.15;100651.19;5074907;28;20040;-76
2021/09/07 01:04:42;;;;;;;5.78;2.70;;;;;;;7.66;70.27;100651.19;5056419;28;20110;-76
2021/09/07 01:07:09;;;;;;;4.90;2.60;;;;;;;7.59;70.57;100642.44;5073173;28;20063;-78
2021/09/07 01:09:38;;;;;;;5.43;2.60;;;;;;;7.71;70.63;100659.91;5073203;28;20127;-78
2021/09/07 01:12:06;;;;;;;4.93;2.97;;;;;;;7.66;70.73;100648.59;5054445;28;20075;-77
2021/09/07 01:14:34;;;;;;;3.70;2.28;;;;;;;7.71;70.49;100661.63;5037558;28;20411;-76
2021/09/07 01:17:01;;;;;;;4.35;2.60;;;;;;;7.68;70.85;100663.31;5053752;28;20036;-76
2021/09/07 01:19:30;;;;;;;4.88;2.50;;;;;;;7.62;70.62;100649.38;5073873;28;20134;-78
2021/09/07 01:21:57;;;;;;;3.55;2.20;;;;;;;7.64;71.14;100653.75;5021108;28;20036;-79
2021/09/07 01:24:24;;;;;;;3.72;2.40;;;;;;;7.74;71.30;100664.25;5072799;28;20067;-77
2021/09/07 01:26:50;;;;;;;5.80;2.53;;;;;;;7.78;70.92;100656.56;5073804;28;20028;-76
2021/09/07 01:29:17;;;;;;;5.80;2.28;;;;;;;7.67;70.86;100637.38;5057118;28;20527;-77
2021/09/07 01:31:46;;;;;;;4.72;3.15;;;;;;;7.82;70.91;100655.78;5078868;28;20051;-77
2021/09/07 01:34:20;;;;;;;4.80;2.58;;;;;;;7.80;70.92;100654.88;5059469;28;20045;-76
2021/09/07 01:36:46;;;;;;;3.83;2.45;;;;;;;7.81;71.16;100645.38;5059117;28;20126;-76
2021/09/07 01:39:13;;;;;;;8.10;2.88;;;;;;;7.85;70.97;100647.19;5092365;28;20100;-75
2021/09/07 01:41:39;;;;;;;6.07;2.45;;;;;;;7.89;70.94;100648.97;5081077;28;20037;-76
2021/09/07 01:44:05;;;;;;;3.45;2.15;;;;;;;7.91;70.98;100648.97;5063920;28;20086;-77
2021/09/07 01:46:30;;;;;;;6.00;2.45;;;;;;;7.86;70.77;100640.25;5074861;28;20036;-77
2021/09/07 01:48:56;;;;;;;4.03;1.90;;;;;;;7.72;71.06;100609.84;5081055;28;20051;-76
2021/09/07 01:51:22;;;;;;;4.65;1.95;;;;;;;7.92;71.05;100641.25;5024100;28;20412;-76
2021/09/07 01:53:48;;;;;;;2.83;2.17;;;;;;;7.93;70.63;100640.41;5072699;28;20118;-75
2021/09/07 01:56:13;;;;;;;3.90;2.45;;;;;;;7.84;70.86;100633.34;5037166;28;20036;-76
2021/09/07 01:58:40;;;;;;;5.13;2.17;;;;;;;7.81;70.97;100617.75;5053033;28;20476;-77
2021/09/07 02:01:06;;;;;;;5.68;2.45;;;;;;;7.94;71.14;100630.91;5071190;28;20036;-77
2021/09/07 02:03:31;;;;;;;5.57;2.13;;;;;;;7.82;71.06;100609.16;5052946;28;20047;-76
2021/09/07 02:05:57;;;;;;;7.13;2.30;;;;;;;7.96;70.92;100629.19;5037347;28;20044;-76
2021/09/07 02:08:23;;;;;;;7.07;2.33;;;;;;;8.03;70.89;100627.56;5052703;28;20036;-76
2021/09/07 02:10:49;;;;;;;6.45;2.50;;;;;;;8.00;71.15;100623.22;5070898;28;20048;-77
2021/09/07 02:13:16;;;;;;;2.88;1.92;;;;;;;8.06;71.02;100636.25;5052643;28;20110;-77
2021/09/07 02:15:44;;;;;;;3.72;2.00;;;;;;;7.85;70.98;100595.34;5070450;28;20472;-75
2021/09/07 02:18:11;;;;;;;3.22;1.58;;;;;;;8.05;70.80;100625.88;5053184;28;20044;-76
2021/09/07 02:20:37;;;;;;;6.25;2.10;;;;;;;8.08;71.11;100623.31;5052805;28;20040;-76
2021/09/07 02:23:08;;;;;;;5.38;1.92;;;;;;;8.09;70.96;100625.94;5036211;28;20063;-77
2021/09/07 02:25:35;;;;;;;5.40;1.85;;;;;;;8.11;70.95;100619.03;5070041;28;20036;-76
2021/09/07 02:28:02;;;;;;;5.05;1.75;;;;;;;7.96;70.91;100595.50;5053050;28;20051;-76
2021/09/07 02:30:29;;;;;;;3.78;1.83;;;;;;;8.09;71.21;100612.09;5053274;28;20040;-76
2021/09/07 02:32:56;;;;;;;3.97;1.60;;;;;;;8.06;70.69;100605.13;5053239;28;20126;-76
2021/09/07 02:35:23;;;;;;;2.47;1.65;;;;;;;8.09;70.79;100612.97;5070450;28;20044;-76
2021/09/07 02:37:48;;;;;;;4.47;2.00;;;;;;;8.14;70.85;100615.66;5053203;28;20040;-76
2021/09/07 02:40:15;;;;;;;5.72;2.33;;;;;;;8.02;70.82;100598.19;5069507;28;20040;-76
2021/09/07 02:42:42;;;;;;;3.03;1.80;;;;;;;8.18;70.98;100624.31;5070570;28;20048;-76
2021/09/07 02:45:08;;;;;;;4.68;1.80;;;;;;;8.07;70.63;100596.50;5069870;28;20051;-77
2021/09/07 02:47:35;;;;;;;4.72;1.70;;;;;;;8.18;70.74;100609.63;5052630;28;20144;-76
2021/09/07 02:50:02;;;;;;;4.28;1.70;;;;;;;8.19;70.58;100615.69;5036380;28;20047;-77
2021/09/07 02:52:29;;;;;;;3.00;1.80;;;;;;;8.14;70.71;100621.69;5070840;28;20056;-76
2021/09/07 02:54:55;;;;;;;4.72;1.95;;;;;;;8.16;70.69;100620.84;5035429;28;20405;-78
2021/09/07 02:57:20;;;;;;;2.80;1.50;;;;;;;8.19;70.59;100626.06;5070316;28;20048;-77
2021/09/07 02:59:47;;;;;;;3.75;1.80;;;;;;;8.17;70.61;100618.25;5036723;28;20040;-76
2021/09/07 03:02:14;;;;;;;4.93;1.92;;;;;;;8.22;70.76;100626.13;5039241;28;20097;-77
2021/09/07 03:04:39;;;;;;;2.83;1.75;;;;;;;8.18;70.40;100619.16;5057238;28;20127;-77
2021/09/07 03:07:05;;;;;;;3.70;1.88;;;;;;;8.24;70.20;100621.84;5056721;28;20041;-77
2021/09/07 03:09:31;;;;;;;4.25;1.80;;;;;;;8.12;70.48;100592.28;5074493;28;20654;-75
2021/09/07 03:11:57;;;;;;;6.28;2.05;;;;;;;8.10;70.41;100593.13;5074433;28;20416;-76
2021/09/07 03:14:23;;;;;;;3.95;2.10;;;;;;;8.30;70.74;100624.47;5040134;28;20040;-75
2021/09/07 03:16:50;;;;;;;5.18;2.28;;;;;;;8.31;70.43;100622.78;5040081;28;20040;-75
2021/09/07 03:19:17;;;;;;;7.18;2.30;;;;;;;8.34;70.43;100628.88;5073964;28;20044;-76
2021/09/07 03:21:43;;;;;;;6.43;2.83;;;;;;;8.37;70.25;100626.31;5055608;28;20037;-75
2021/09/07 03:24:09;;;;;;;6.35;1.92;;;;;;;8.29;70.43;100602.00;5074571;28;20048;-75
2021/09/07 03:26:35;;;;;;;5.90;2.30;;;;;;;8.27;70.62;100599.41;5056120;28;20040;-76
2021/09/07 03:29:01;;;;;;;3.72;2.22;;;;;;;8.38;70.48;100602.13;5074219;28;20530;-75
2021/09/07 03:31:27;;;;;;;4.93;2.20;;;;;;;8.46;70.04;100625.56;5056384;28;20060;-77
2021/09/07 03:33:54;;;;;;;6.47;2.00;;;;;;;8.43;70.30;100618.63;5056474;28;20475;-76
2021/09/07 03:36:21;;;;;;;3.70;1.80;;;;;;;8.47;70.62;100635.09;5055909;28;20044;-76
2021/09/07 03:38:47;;;;;;;2.90;1.90;;;;;;;8.55;70.65;100633.50;5075091;28;20048;-77
2021/09/07 03:41:12;;;;;;;4.40;2.05;;;;;;;8.41;70.35;100607.34;5075642;28;20052;-75
2021/09/07 03:43:39;;;;;;;4.07;1.83;;;;;;;8.51;70.52;100625.66;5055986;28;20051;-77
2021/09/07 03:46:05;;;;;;;2.63;1.98;;;;;;;8.41;70.52;100615.13;5055988;28;20043;-78
2021/09/07 03:48:33;;;;;;;3.28;2.17;;;;;;;8.50;70.51;100623.91;5040170;28;20078;-76
2021/09/07 03:51:00;;;;;;;3.03;1.90;;;;;;;8.55;70.45;100630.03;5042822;28;20059;-77
2021/09/07 03:53:29;;;;;;;3.70;1.90;;;;;;;8.57;70.75;100617.94;5074445;28;20111;-78
2021/09/07 03:55:57;;;;;;;2.90;1.73;;;;;;;8.56;70.80;100616.22;5056662;28;20040;-76
2021/09/07 03:58:24;;;;;;;3.92;2.15;;;;;;;8.35;70.83;100593.44;5055827;28;20036;-76
2021/09/07 04:00:50;;;;;;;2.83;1.65;;;;;;;8.47;71.04;100616.06;5043585;28;20113;-77
2021/09/07 04:03:18;;;;;;;6.07;2.05;;;;;;;8.39;71.14;100606.47;5060950;28;20044;-78
2021/09/07 04:05:46;;;;;;;2.60;1.70;;;;;;;8.47;71.06;100621.28;5048364;28;20052;-79
2021/09/07 04:08:12;;;;;;;4.40;1.77;;;;;;;8.42;70.97;100627.25;5087734;28;20043;-77
2021/09/07 04:10:38;;;;;;;3.85;1.90;;;;;;;8.48;71.02;100634.28;5087659;28;20051;-78
2021/09/07 04:13:07;;;;;;;4.32;1.83;;;;;;;8.51;70.92;100633.44;5054030;28;20040;-79
2021/09/07 04:15:33;;;;;;;3.58;1.70;;;;;;;8.43;70.99;100616.03;5070813;28;20502;-77
2021/09/07 04:17:59;;;;;;;2.65;1.60;;;;;;;8.50;71.30;100623.91;5090618;28;20054;-79
2021/09/07 04:20:26;;;;;;;3.25;1.85;;;;;;;8.56;71.30;100632.66;5087662;28;20087;-78
2021/09/07 04:22:52;;;;;;;4.28;1.95;;;;;;;8.57;71.32;100631.81;5072102;28;20040;-78
2021/09/07 04:25:18;;;;;;;2.33;1.70;;;;;;;8.51;71.54;100599.72;5032867;28;20067;-76
2021/09/07 04:27:44;;;;;;;5.10;1.70;;;;;;;8.67;71.40;100621.53;5061012;28;20086;-76
2021/09/07 04:30:13;;;;;;;2.63;1.90;;;;;;;8.65;71.39;100618.94;5058434;28;20041;-78
2021/09/07 04:32:39;;;;;;;3.28;1.90;;;;;;;8.70;71.62;100619.88;5074127;28;20071;-79
2021/09/07 04:35:05;;;;;;;2.30;1.75;;;;;;;8.66;71.59;100597.31;5042749;28;20040;-75
2021/09/07 04:37:31;;;;;;;3.78;1.85;;;;;;;8.85;71.59;100615.69;5042410;28;20546;-78
2021/09/07 04:39:57;;;;;;;3.50;1.73;;;;;;;8.92;71.82;100608.84;5075529;28;20036;-78
2021/09/07 04:42:25;;;;;;;3.08;1.90;;;;;;;8.97;71.42;100609.75;5057754;28;20081;-77
2021/09/07 04:44:51;;;;;;;4.13;1.80;;;;;;;9.06;71.51;100619.38;5060052;28;20104;-78
2021/09/07 04:47:18;;;;;;;4.03;1.80;;;;;;;9.11;71.75;100610.78;5077465;28;20439;-77
2021/09/07 04:49:47;;;;;;;4.75;1.85;;;;;;;9.15;71.40;100612.53;5041929;28;20109;-79
2021/09/07 04:52:13;;;;;;;3.90;1.73;;;;;;;9.10;71.76;100605.56;5058173;28;20043;-79
2021/09/07 04:54:39;;;;;;;5.85;2.13;;;;;;;8.64;71.55;100534.16;5057586;28;20056;-78
2021/09/07 04:57:05;;;;;;;3.35;1.70;;;;;;;8.64;71.19;100509.94;5075074;28;20515;-77
2021/09/07 04:59:31;;;;;;;3.95;1.90;;;;;;;9.16;70.97;100577.94;5040339;28;20043;-76
2021/09/07 05:02:07;;;;;;;2.38;1.48;;;;;;;9.21;71.28;100562.38;5023784;28;20044;-79
2021/09/07 05:04:39;;;;;;;2.65;2.05;;;;;;;8.91;70.87;100498.97;5056930;28;20082;-77
2021/09/07 05:07:05;;;;;;;;;;;;;;;9.65;70.82;100613.84;5039695;28;20143;-76
2021/09/07 05:09:31;;;;;;;4.03;1.80;;;;;;;9.61;70.94;100596.47;5056539;28;19959;-79
2021/09/07 05:12:00;;;;;;;2.60;1.58;;;;;;;9.50;70.74;100565.22;5059280;28;20127;-80
2021/09/07 05:14:25;;;;;;;3.35;1.70;;;;;;;9.71;70.50;100592.22;5059584;28;20040;-76
2021/09/07 05:16:51;;;;;;;4.40;1.80;;;;;;;9.97;70.29;100611.47;5075358;28;20518;-78
2021/09/07 05:19:17;;;;;;;2.17;1.38;;;;;;;10.04;70.64;100598.53;5074437;28;20292;-78
2021/09/07 05:21:43;;;;;;;4.30;2.10;;;;;;;10.19;69.97;100595.16;5073583;28;20051;-78
2021/09/07 05:24:09;;;;;;;3.35;2.08;;;;;;;10.27;69.78;100586.50;5055988;28;20565;-77
2021/09/07 05:26:35;;;;;;;3.30;1.50;;;;;;;10.35;69.29;100600.41;5076442;28;20078;-73
2021/09/07 05:29:01;;;;;;;4.75;1.80;;;;;;;10.51;68.93;100619.63;5075815;28;20047;-77
2021/09/07 05:31:27;;;;;;;5.72;2.08;;;;;;;10.53;69.07;100615.28;5073895;28;20036;-78
2021/09/07 05:33:53;;;;;;;4.50;1.80;;;;;;;10.68;68.50;100611.88;5055325;28;20100;-80
2021/09/07 05:36:18;;;;;;;2.03;1.45;;;;;;;10.75;68.00;100600.59;5054749;28;20044;-76
2021/09/07 05:38:44;;;;;;;3.55;1.60;;;;;;;10.99;67.68;100594.63;5054383;28;20043;-78
2021/09/07 05:41:10;;;;;;;4.43;1.92;;;;;;;11.15;66.96;100603.28;5055862;28;20036;-77
2021/09/07 05:43:35;;;;;;;2.45;1.55;;;;;;;11.18;67.18;100565.97;5078839;28;20106;-75
2021/09/07 05:46:01;;;;;;;5.00;2.20;;;;;;;11.69;67.02;100597.25;5055620;28;20120;-77
2021/09/07 05:48:27;;;;;;;3.08;2.08;;;;;;;12.67;67.51;100578.72;5038640;28;20509;-80
2021/09/07 05:50:53;;;;;;;3.75;1.90;;;;;;;14.51;66.15;100589.38;5021755;28;20036;-79
2021/09/07 05:53:19;;;;;;;6.65;1.55;;;;;;;16.08;63.61;100548.47;5054970;28;20593;-80
2021/09/07 05:55:45;;;;;;;5.93;1.70;;;;;;;18.09;61.22;100584.13;5023373;28;20036;-79
2021/09/07 05:58:11;;;;;;;7.22;2.05;;;;;;;19.96;59.29;100573.94;5038624;28;20419;-77
2021/09/07 06:00:36;;;;;;;3.95;1.50;;;;;;;21.13;53.59;100575.72;5074992;28;20498;-77
2021/09/07 06:03:04;;;;;;;5.10;1.70;;;;;;;21.11;49.68;100554.63;5038235;28;20040;-75
2021/09/07 06:05:30;;;;;;;4.05;1.50;;;;;;;20.45;46.19;100590.63;5038501;28;20044;-79
2021/09/07 06:07:56;;;;;;;7.93;1.60;;;;;;;19.30;46.76;100566.50;5077149;28;20047;-74
2021/09/07 06:10:21;;;;;;;3.90;1.60;;;;;;;18.75;47.29;100568.16;5024399;28;20415;-76
2021/09/07 06:12:48;;;;;;;6.10;2.03;;;;;;;18.20;46.97;100568.03;5024067;28;20051;-82
2021/09/07 06:15:13;;;;;;;5.95;1.95;;;;;;;17.78;47.05;100566.50;5079351;28;20044;-76
2021/09/07 06:17:39;;;;;;;6.68;1.77;;;;;;;17.79;46.69;100591.03;5063303;28;20044;-77
2021/09/07 06:20:06;;;;;;;10.57;2.05;;;;;;;17.86;47.16;100576.81;5062195;28;20037;-74
2021/09/07 06:22:44;;;;;;;5.53;1.80;;;;;;;18.34;46.91;100593.94;5078475;28;20044;-77
2021/09/07 06:25:15;;;;;;;5.38;1.92;;;;;;;18.42;45.56;100565.63;5053629;28;20040;-76
2021/09/07 06:27:50;;;;;;;6.32;1.70;;;;;;;19.13;45.42;100583.69;5056273;28;20127;-80
2021/09/07 06:30:23;;;;;;;3.95;1.55;;;;;;;20.39;44.50;100577.66;5057289;28;20051;-78
2021/09/07 06:32:51;;;;;;;4.35;1.88;;;;;;;22.04;42.27;100565.72;5056479;28;20033;-79
2021/09/07 06:35:17;;;;;;;3.65;1.75;;;;;;;23.40;40.33;100547.88;5040370;28;20037;-78
2021/09/07 06:37:44;;;;;;;4.50;2.20;;;;;;;23.83;37.76;100550.97;5043847;28;20048;-77
2021/09/07 06:40:17;;;;;;;4.40;1.80;;;;;;;24.31;37.29;100545.78;5077199;28;20044;-78
2021/09/07 06:43:05;;;;;;;3.50;1.80;;;;;;;25.09;35.05;100536.16;5072437;28;20048;-77
2021/09/07 06:45:34;;;;;;;2.73;1.50;;;;;;;25.01;33.71;100522.44;5037210;28;20039;-80
2021/09/07 06:48:00;;;;;;;4.72;1.58;;;;;;;24.63;34.13;100548.44;5053127;28;20270;-79
2021/09/07 06:50:26;;;;;;;5.70;1.60;;;;;;;23.94;33.17;100531.81;5073074;28;20036;-79
2021/09/07 06:52:52;;;;;;;4.88;1.73;;;;;;;23.94;34.45;100544.22;5054481;28;20052;-78
2021/09/07 06:55:23;;;;;;;2.67;1.42;;;;;;;24.13;33.66;100526.38;5055286;28;20442;-77
2021/09/07 06:57:49;;;;;;;5.15;1.80;;;;;;;24.16;33.41;100504.09;5038278;28;20040;-78
2021/09/07 07:00:14;;;;;;;6.38;1.90;;;;;;;24.53;32.77;100539.28;5054716;28;20048;-82
2021/09/07 07:02:41;;;;;;;2.70;1.15;;;;;;;24.15;32.23;100507.69;5021360;28;20415;-80
2021/09/07 07:05:16;;;;;;;5.03;2.05;;;;;;;24.85;31.83;100522.47;5054795;28;20044;-78
2021/09/07 07:07:42;;;;;;;2.83;1.58;;;;;;;26.99;30.51;100533.44;5048672;28;20040;-76
2021/09/07 07:10:12;;;;;;;4.40;2.03;;;;;;;29.24;28.54;100514.97;5066336;28;20082;-80
2021/09/07 07:12:48;;;;;;;8.70;1.98;;;;;;;30.55;25.93;100511.84;5065967;28;20086;-79
2021/09/07 07:15:18;;;;;;;6.00;1.90;;;;;;;30.68;25.39;100490.22;5059411;28;20032;-74
2021/09/07 07:17:44;;;;;;;3.72;1.92;;;;;;;30.36;24.54;100520.56;5042030;28;20047;-76
2021/09/07 07:20:10;;;;;;;4.05;2.10;;;;;;;28.29;25.82;100488.94;5042636;28;20052;-79
2021/09/07 07:22:36;;;;;;;9.48;2.30;;;;;;;26.75;27.22;100520.72;5041181;28;20488;-74
2021/09/07 07:25:05;;;;;;;9.40;5.57;;;;;;;25.55;28.00;100532.63;5056326;28;20036;-78
2021/09/07 07:27:38;;;;;;;5.60;1.83;;;;;;;24.61;28.84;100512.25;5057509;28;20032;-78
2021/09/07 07:30:09;;;;;;;3.95;1.77;;;;;;;23.86;29.79;100539.31;5026706;28;20044;-76
2021/09/07 07:32:35;;;;;;;3.95;1.58;;;;;;;22.85;30.35;100526.63;5073768;28;20036;-76
2021/09/07 07:35:02;;;;;;;2.50;1.33;;;;;;;21.64;31.18;100515.38;5055478;28;20488;-80
2021/09/07 07:37:28;;;;;;;4.30;1.73;;;;;;;21.03;32.56;100523.19;5055406;28;20127;-77
2021/09/07 07:39:54;;;;;;;4.57;1.50;;;;;;;20.68;33.43;100530.72;5056623;28;20040;-81
2021/09/07 07:42:31;;;;;;;3.70;1.33;;;;;;;20.33;34.24;100543.53;5041110;28;20110;-79
2021/09/07 07:44:56;;;;;;;9.60;2.15;;;;;;;20.04;34.52;100545.47;5040361;28;20086;-78
2021/09/07 07:47:25;;;;;;;4.50;1.50;;;;;;;19.50;35.00;100556.13;5038264;28;20404;-82
2021/09/07 07:50:20;;;;;;;2.95;1.70;;;;;;;18.95;36.12;100537.72;5024615;28;20173;-76
2021/09/07 07:52:45;;;;;;;5.60;1.30;;;;;;;18.78;36.32;100551.38;5076275;28;20040;-76
2021/09/07 07:55:13;;;;;;;6.40;1.30;;;;;;;18.33;36.86;100550.06;5058621;28;20106;-76
2021/09/07 07:57:39;;;;;;;7.10;1.63;;;;;;;17.99;37.91;100551.03;5045559;28;20116;-78
2021/09/07 08:00:06;;;;;;;5.05;1.60;;;;;;;17.61;38.31;100540.63;5079015;28;20071;-77
2021/09/07 08:02:35;;;;;;;5.55;1.50;;;;;;;17.40;38.63;100553.41;5081842;28;20036;-76
2021/09/07 08:05:06;;;;;;;2.15;1.23;;;;;;;17.09;38.92;100555.94;5082675;28;20064;-77
2021/09/07 08:07:35;;;;;;;7.32;1.40;;;;;;;17.02;39.46;100552.59;5045477;28;20040;-77
2021/09/07 08:10:10;;;;;;;5.45;1.40;;;;;;;17.13;39.53;100549.72;5045433;28;20103;-79
2021/09/07 08:12:46;;;;;;;2.70;1.20;;;;;;;16.25;38.94;100427.31;5039780;28;20063;-77
2021/09/07 08:15:45;;;;;;;4.60;1.25;;;;;;;15.70;39.52;100368.97;5045901;28;20097;-78
2021/09/07 08:18:16;;;;;;;4.13;1.65;;;;;;;16.26;40.51;100457.06;5056891;28;20078;-80
2021/09/07 08:20:47;;;;;;;;;;;;;;;16.83;40.46;100541.59;5023871;28;20072;-77
2021/09/07 08:23:18;;;;;;;4.32;1.67;;;;;;;16.75;40.40;100519.91;5039305;28;19916;-84
2021/09/07 08:25:53;;;;;;;5.70;2.80;;;;;;;16.40;39.96;100488.28;5074338;28;20146;-77
2021/09/07 08:28:19;;;;;;;2.17;1.40;;;;;;;16.37;40.81;100517.25;5074310;28;20032;-78
2021/09/07 08:31:06;;;;;;;5.63;1.80;;;;;;;15.27;40.82;100360.25;5059429;28;20040;-76
2021/09/07 08:33:32;;;;;;;6.43;1.73;;;;;;;16.08;41.58;100521.34;5057758;28;20127;-77
2021/09/07 08:36:01;;;;;;;3.88;1.35;;;;;;;15.51;41.93;100441.94;5042232;28;20066;-79
2021/09/07 08:38:29;;;;;;;4.93;1.67;;;;;;;15.57;42.41;100465.41;5076186;28;20044;-78
2021/09/07 08:40:59;;;;;;;6.32;1.98;;;;;;;16.19;42.71;100555.25;5024949;28;20186;-80
2021/09/07 08:43:30;;;;;;;4.55;1.45;;;;;;;15.80;42.48;100449.25;5021587;28;20049;-78
2021/09/07 08:45:59;;;;;;;5.53;1.50;;;;;;;16.42;42.48;100547.75;5076423;28;20036;-80
2021/09/07 08:48:26;;;;;;;4.75;1.63;;;;;;;16.25;42.29;100528.88;5040776;28;20041;-76
2021/09/07 08:50:54;;;;;;;5.22;1.80;;;;;;;16.22;42.74;100532.41;5042508;28;20048;-76
2021/09/07 08:53:24;;;;;;;7.03;1.98;;;;;;;16.40;43.15;100518.03;5057577;28;20036;-79
2021/09/07 08:55:53;;;;;;;3.45;1.58;;;;;;;16.56;42.60;100538.69;5040530;28;20504;-77
2021/09/07 08:58:25;;;;;;;5.32;1.65;;;;;;;16.66;42.72;100521.00;5042827;28;20043;-80
2021/09/07 09:00:50;;;;;;;6.78;2.00;;;;;;;16.96;42.35;100543.09;5075675;28;20123;-79
2021/09/07 09:03:18;;;;;;;3.03;1.83;;;;;;;16.90;42.17;100513.41;5056551;28;20036;-78
2021/09/07 09:05:45;;;;;;;4.78;1.38;;;;;;;16.82;42.05;100511.84;5057489;28;20760;-76
2021/09/07 09:08:15;;;;;;;5.45;1.90;;;;;;;16.77;42.38;100537.38;5059742;28;20036;-78
2021/09/07 09:11:13;;;;;;;5.50;1.98;;;;;;;16.70;42.95;100541.03;5035578;28;20080;-80
2021/09/07 09:13:50;;;;;;;5.68;2.30;;;;;;;16.69;42.64;100534.03;5058201;28;20044;-79
2021/09/07 09:16:30;;;;;;;3.97;1.90;;;;;;;16.55;42.69;100545.72;5074868;28;20056;-80
2021/09/07 09:19:31;;;;;;;2.90;1.20;;;;;;;16.40;43.25;100544.28;5035749;28;20127;-77
2021/09/07 09:22:15;;;;;;;4.03;1.45;;;;;;;15.45;43.34;100402.72;5046033;28;20044;-78
2021/09/07 09:24:50;;;;;;;4.22;1.40;;;;;;;15.49;43.57;100386.88;5027605;28;20096;-79
2021/09/07 09:27:16;;;;;;;2.85;1.40;;;;;;;15.71;44.04;100422.34;5042325;28;20041;-76
2021/09/07 09:29:59;;;;;;;4.25;1.77;;;;;;;16.23;43.98;100544.63;5020657;28;20040;-77
2021/09/07 09:32:53;;;;;;;9.32;1.38;;;;;;;15.73;44.74;100551.72;5004877;28;20104;-78
2021/09/07 09:35:23;;;;;;;4.22;1.70;;;;;;;14.78;44.67;100439.72;5021404;28;20037;-79
2021/09/07 09:37:55;;;;;;;3.10;1.17;;;;;;;15.25;45.88;100555.16;5022712;28;20060;-76
2021/09/07 09:40:36;;;;;;;7.03;1.65;;;;;;;14.87;46.23;100518.19;5021443;28;20032;-78
2021/09/07 09:46:44;;;;;;;3.05;1.40;;;;;;;13.93;46.95;100386.84;5011108;28;20408;-78
2021/09/07 09:49:16;;;;;;;6.10;1.48;;;;;;;14.53;47.25;100490.72;5020969;28;20106;-78
2021/09/07 09:55:20;;;;;;;5.22;1.95;;;;;;;14.99;47.60;100559.91;5031426;28;20186;-78
2021/09/07 09:57:55;;;;;;;6.78;1.98;;;;;;;14.52;47.44;100486.34;5042847;28;20041;-79
2021/09/07 10:00:30;;;;;;;6.55;1.88;;;;;;;14.43;47.43;100455.94;5075934;28;20040;-77
2021/09/07 10:03:02;;;;;;;5.63;1.40;;;;;;;14.74;47.65;100501.78;5041494;28;20081;-78
2021/09/07 10:05:28;;;;;;;2.85;1.20;;;;;;;14.52;47.69;100443.56;5056464;28;20101;-77
2021/09/07 10:08:26;;;;;;;3.20;1.45;;;;;;;14.27;47.76;100402.03;5044147;28;20040;-78
2021/09/07 10:11:33;;;;;;;4.10;1.73;;;;;;;14.98;47.76;100573.06;5056220;28;20040;-80
2021/09/07 10:14:43;;;;;;;4.00;1.55;;;;;;;14.90;48.17;100562.66;5067624;28;20106;-76
2021/09/07 10:17:53;;;;;;;3.65;1.25;;;;;;;14.58;48.54;100522.91;5063063;28;20040;-80
2021/09/07 10:21:18;;;;;;;3.20;1.30;;;;;;;14.96;48.61;100564.34;5036435;28;20048;-79
2021/09/07 10:26:43;;;;;;;4.50;1.63;;;;;;;14.99;48.89;100552.06;5059278;28;20036;-77
2021/09/07 10:29:25;;;;;;;;;;;;;;;;;;;;;
2021/09/07 10:32:27;;;;;;;4.72;1.40;;;;;;;15.11;49.15;100563.25;5057983;28;20045;-78
2021/09/07 10:35:22;;;;;;;6.90;1.70;;;;;;;14.83;48.77;100512.09;5048697;28;20040;-76
2021/09/07 10:38:11;;;;;;;6.60;1.52;;;;;;;15.29;48.61;100562.97;5073023;28;20036;-77
2021/09/07 10:40:45;;;;;;;3.17;1.33;;;;;;;15.27;48.92;100575.22;5021371;28;20041;-78
2021/09/07 10:43:11;;;;;;;5.70;1.92;;;;;;;15.07;48.57;100536.22;5072827;28;20389;-78
2021/09/07 10:45:46;;;;;;;3.03;1.60;;;;;;;14.12;49.03;100398.78;5023035;28;20044;-78
2021/09/07 10:48:32;;;;;;;3.83;1.42;;;;;;;15.18;49.41;100557.88;5038296;28;20091;-78
2021/09/07 10:51:02;;;;;;;2.70;1.55;;;;;;;15.11;49.52;100551.00;5038853;28;20044;-79
2021/09/07 10:54:28;;;;;;;6.15;1.27;;;;;;;15.10;49.48;100562.38;5054828;28;20597;-79
2021/09/07 10:57:34;;;;;;;5.07;1.38;;;;;;;14.06;49.94;100392.75;5074303;28;20048;-80
2021/09/07 11:00:21;;;;;;;5.65;1.50;;;;;;;15.07;49.85;100557.16;5038520;28;20044;-79
2021/09/07 11:03:02;;;;;;;1.92;1.52;;;;;;;14.81;49.95;100536.63;5055660;28;20135;-77
2021/09/07 11:05:44;;;;;;;3.95;1.00;;;;;;;14.86;50.16;100542.66;5055925;28;20040;-77
2021/09/07 11:08:36;;;;;;;3.17;1.00;;;;;;;14.95;50.16;100562.63;5023749;28;20526;-80
2021/09/07 11:11:28;;;;;;;3.33;1.08;;;;;;;14.89;50.11;100561.81;5022049;28;20140;-79
2021/09/07 11:14:09;;;;;;;1.70;1.30;;;;;;;14.74;50.57;100526.22;5053120;28;20074;-78
2021/09/07 11:16:41;;;;;;;3.88;1.20;;;;;;;14.67;50.39;100521.06;5036548;28;20048;-80
2021/09/07 11:19:06;;;;;;;4.32;1.30;;;;;;;14.43;50.44;100489.97;5053028;28;20521;-77
2021/09/07 11:21:35;;;;;;;4.97;1.20;;;;;;;14.65;50.79;100547.28;5071405;28;20036;-78
2021/09/07 11:24:03;;;;;;;2.22;1.35;;;;;;;14.41;51.04;100520.53;5039877;28;20135;-78
2021/09/07 11:26:29;;;;;;;6.97;1.63;;;;;;;14.69;51.07;100541.13;5060273;28;20512;-78
2021/09/07 11:29:33;;;;;;;2.08;1.48;;;;;;;14.53;51.09;100529.09;5077601;28;20036;-81
2021/09/07 11:32:24;;;;;;;4.32;1.40;;;;;;;14.83;51.38;100566.28;5052744;28;20063;-79
2021/09/07 11:35:16;;;;;;;2.35;1.20;;;;;;;14.67;51.34;100521.94;5056542;28;20396;-77
2021/09/07 11:37:42;;;;;;;3.13;1.40;;;;;;;14.79;51.23;100541.84;5034981;28;20064;-78
2021/09/07 11:40:12;;;;;;;4.28;1.27;;;;;;;15.02;51.44;100549.38;5076491;28;20342;-77
2021/09/07 11:42:47;;;;;;;1.80;1.33;;;;;;;15.03;51.08;100532.78;5059813;28;20110;-77
2021/09/07 11:45:22;;;;;;;2.78;1.40;;;;;;;15.03;51.70;100542.38;5057110;28;20048;-75
2021/09/07 11:47:48;;;;;;;2.13;1.25;;;;;;;15.20;51.34;100557.84;5057092;28;20028;-77
2021/09/07 11:50:30;;;;;;;3.25;1.10;;;;;;;15.20;51.59;100540.38;5041448;28;20044;-79
2021/09/07 11:53:17;;;;;;;2.55;1.20;;;;;;;15.06;51.43;100524.88;5074401;28;20032;-77
2021/09/07 11:55:53;;;;;;;4.65;1.75;;;;;;;15.24;51.59;100537.69;5073600;28;20519;-77
2021/09/07 11:58:40;;;;;;;4.32;1.80;;;;;;;15.31;51.50;100550.69;5021427;28;20062;-78